Airfield :
LOGIN :

Register | Disclaimer

   EN    FR    IT 

 










Legend :    VFR   Marginal VFR   IFR   Intensive IFR   Very Intensive IFR
Visi :
Ceiling :
>= 8 km
>= 3000ft
5 to 8 km
1000 to 3000 ft
1500m to 5 km
500 to 1000 ft
800 to 1500m
200 to 500 ft
< 800m
< 200 ft
Symbols :   Thunderstorms  Fog  Heavy snow  Heavy precipitations  Wind > 20 kt
SIGMETs :     Misc.  Thunderstorms  Icing  Turbulence  Mountain Waves  Volcanic Ashes







- Airport Elevation : 1017 ft
- Download approach charts


LFSL - Brive Souillac

CURRENT METAR :
  • 161730Z AUTO 27003KT 230V310 CAVOK 21/17 Q1017 TEMPO VRB15G25KT 4000 SHRA SCT015 SCT040CB

EXPIRED METARs :
  • 161700Z AUTO VRB02KT CAVOK 21/17 Q1017 TEMPO VRB15G25KT 4000 SHRA SCT015 SCT040CB
  • 161630Z AUTO 27004KT 220V310 CAVOK 22/17 Q1016 TEMPO VRB15G25KT 4000 SHRA SCT015 SCT040CB
  • 161600Z AUTO 27005KT 230V300 CAVOK 22/17 Q1016 TEMPO VRB15G25KT 4000 SHRA SCT015 SCT040CB
  • 161530Z AUTO 27006KT 240V310 9999 ///TCU 22/18 Q1016 TEMPO VRB15G25KT 4000 SHRA SCT015 SCT040CB
  • 161500Z AUTO 27005KT 210V310 9999 ///CB 21/18 Q1016 TEMPO VRB15G25KT 4000 SHRA

TAF TAF LFSL
Valid from the 16 at 15:00 until the 17 at 00:00 UTC


161400Z 1615/1624 29008KT 9999 SCT020 SCT050
PROB40
TEMPO 1615/1620 VRB15G25KT 4000 SHRA SCT015 SCT040CB
No reported NOTAMs for that airfield.
2 SIGMETs reported for the Bordeaux FIR (LFBB) :
 
Embedded thunderstorms
LFBB SIGMET 18 VALID 161800/162000 LFPW
LFBB BORDEAUX FIR/UIR EMBD TS FCST WI N4630 W00015 - N4715 W00015 - N4715 E00030 - N4600 E00115 - N4545 E00000 - N4630 W00015 TOP FL330 MOV E 15KT NC=
Severe turbulence
LFBB SIGMET 16 VALID 161600/162000 LFPW
LFBB BORDEAUX FIR/UIR SEV TURB FCST WI N4315 E00245 - N4230 E00230 - N4300 E00215 - N4315 E00245 SFC/FL060 STNR NC=



MET'MAP, your aeronautical weather chart ! - Copyright ORBIFLY December 2007 - Disclaimer

ORBIFLY MET'MAP TEAM :

Programming & Development : Alexandra Zaïnal
Concept & Development : Baudouin d'Aumeries
Co-Development & Prog : Marc-Olivier Méhu
Technical & hardware support : Manuel Goepfert

Contact : metmap@orbifly.com




SOURCES & CREDITS :

   NOAA